sensor_id;sensor_type;location;lat;lon;timestamp;temperature;humidity
5554;DHT22;2800;49.528;8.666;2022-12-24T00:00:00;11.60;99.90
5554;DHT22;2800;49.528;8.666;2022-12-24T00:02:26;11.70;99.90
5554;DHT22;2800;49.528;8.666;2022-12-24T00:04:51;11.70;99.90
5554;DHT22;2800;49.528;8.666;2022-12-24T00:07:17;11.60;99.90
5554;DHT22;2800;49.528;8.666;2022-12-24T00:09:42;11.50;99.90
5554;DHT22;2800;49.528;8.666;2022-12-24T00:12:08;11.50;99.90
5554;DHT22;2800;49.528;8.666;2022-12-24T00:14:33;11.50;99.90
5554;DHT22;2800;49.528;8.666;2022-12-24T00:16:59;11.50;99.90
5554;DHT22;2800;49.528;8.666;2022-12-24T00:19:24;11.50;99.90
5554;DHT22;2800;49.528;8.666;2022-12-24T00:21:50;11.60;99.90
5554;DHT22;2800;49.528;8.666;2022-12-24T00:24:16;11.50;99.90
5554;DHT22;2800;49.528;8.666;2022-12-24T00:26:41;11.40;99.90
5554;DHT22;2800;49.528;8.666;2022-12-24T00:29:08;11.30;99.90
5554;DHT22;2800;49.528;8.666;2022-12-24T00:31:34;11.30;99.90
5554;DHT22;2800;49.528;8.666;2022-12-24T00:33:59;11.20;99.90
5554;DHT22;2800;49.528;8.666;2022-12-24T00:36:25;11.20;99.90
5554;DHT22;2800;49.528;8.666;2022-12-24T00:38:50;11.20;99.90
5554;DHT22;2800;49.528;8.666;2022-12-24T00:41:16;11.20;99.90
5554;DHT22;2800;49.528;8.666;2022-12-24T00:44:05;11.20;99.90
5554;DHT22;2800;49.528;8.666;2022-12-24T00:46:32;11.20;99.90
5554;DHT22;2800;49.528;8.666;2022-12-24T00:48:58;11.20;99.90
5554;DHT22;2800;49.528;8.666;2022-12-24T00:51:24;11.30;99.90
5554;DHT22;2800;49.528;8.666;2022-12-24T00:53:50;11.20;99.90
5554;DHT22;2800;49.528;8.666;2022-12-24T00:56:16;11.20;99.90
5554;DHT22;2800;49.528;8.666;2022-12-24T00:58:42;11.20;99.90
5554;DHT22;2800;49.528;8.666;2022-12-24T01:01:07;11.20;99.90
5554;DHT22;2800;49.528;8.666;2022-12-24T01:03:34;11.30;99.90
5554;DHT22;2800;49.528;8.666;2022-12-24T01:06:04;11.20;99.90
5554;DHT22;2800;49.528;8.666;2022-12-24T01:08:30;11.20;99.90
5554;DHT22;2800;49.528;8.666;2022-12-24T01:10:56;11.20;99.90
5554;DHT22;2800;49.528;8.666;2022-12-24T01:13:22;11.20;99.90
5554;DHT22;2800;49.528;8.666;2022-12-24T01:15:47;11.20;99.90
5554;DHT22;2800;49.528;8.666;2022-12-24T01:18:13;11.30;99.90
5554;DHT22;2800;49.528;8.666;2022-12-24T01:20:38;11.30;99.90
5554;DHT22;2800;49.528;8.666;2022-12-24T01:23:04;11.30;99.90
5554;DHT22;2800;49.528;8.666;2022-12-24T01:25:30;11.30;99.90
5554;DHT22;2800;49.528;8.666;2022-12-24T01:27:55;11.20;99.90
5554;DHT22;2800;49.528;8.666;2022-12-24T01:30:21;11.30;99.90
5554;DHT22;2800;49.528;8.666;2022-12-24T01:32:46;11.30;99.90
5554;DHT22;2800;49.528;8.666;2022-12-24T01:35:12;11.20;99.90
5554;DHT22;2800;49.528;8.666;2022-12-24T01:37:38;11.10;99.90
5554;DHT22;2800;49.528;8.666;2022-12-24T01:40:05;11.20;99.90
5554;DHT22;2800;49.528;8.666;2022-12-24T01:42:51;11.20;99.90
5554;DHT22;2800;49.528;8.666;2022-12-24T01:48:01;11.10;99.90
5554;DHT22;2800;49.528;8.666;2022-12-24T01:50:27;11.10;99.90
5554;DHT22;2800;49.528;8.666;2022-12-24T01:52:53;11.00;99.90
5554;DHT22;2800;49.528;8.666;2022-12-24T01:55:19;10.90;99.90
5554;DHT22;2800;49.528;8.666;2022-12-24T01:57:52;10.80;99.90
5554;DHT22;2800;49.528;8.666;2022-12-24T02:00:19;10.90;99.90
5554;DHT22;2800;49.528;8.666;2022-12-24T02:02:47;10.80;99.90
5554;DHT22;2800;49.528;8.666;2022-12-24T02:05:31;10.90;99.90
5554;DHT22;2800;49.528;8.666;2022-12-24T02:07:59;10.90;99.90
5554;DHT22;2800;49.528;8.666;2022-12-24T02:10:26;10.80;99.90
5554;DHT22;2800;49.528;8.666;2022-12-24T02:12:52;10.70;99.90
5554;DHT22;2800;49.528;8.666;2022-12-24T02:15:18;10.80;99.90
5554;DHT22;2800;49.528;8.666;2022-12-24T02:23:26;10.80;99.90
5554;DHT22;2800;49.528;8.666;2022-12-24T02:28:59;10.80;99.90
5554;DHT22;2800;49.528;8.666;2022-12-24T02:31:51;10.80;99.90
5554;DHT22;2800;49.528;8.666;2022-12-24T02:37:35;10.80;99.90
5554;DHT22;2800;49.528;8.666;2022-12-24T02:40:37;10.80;99.90
5554;DHT22;2800;49.528;8.666;2022-12-24T02:43:09;10.80;99.90
5554;DHT22;2800;49.528;8.666;2022-12-24T02:45:38;10.70;99.90
5554;DHT22;2800;49.528;8.666;2022-12-24T02:48:05;10.70;99.90
5554;DHT22;2800;49.528;8.666;2022-12-24T02:50:32;10.60;99.90
5554;DHT22;2800;49.528;8.666;2022-12-24T02:52:57;10.60;99.90
5554;DHT22;2800;49.528;8.666;2022-12-24T02:58:41;10.70;99.90
5554;DHT22;2800;49.528;8.666;2022-12-24T03:04:12;10.80;99.90
5554;DHT22;2800;49.528;8.666;2022-12-24T03:07:53;10.70;99.90
5554;DHT22;2800;49.528;8.666;2022-12-24T03:09:54;10.60;99.90
5554;DHT22;2800;49.528;8.666;2022-12-24T03:12:31;10.70;99.90
5554;DHT22;2800;49.528;8.666;2022-12-24T03:14:58;10.70;99.90
5554;DHT22;2800;49.528;8.666;2022-12-24T03:17:25;10.70;99.90
5554;DHT22;2800;49.528;8.666;2022-12-24T03:19:53;10.70;99.90
5554;DHT22;2800;49.528;8.666;2022-12-24T03:22:19;10.80;99.90
5554;DHT22;2800;49.528;8.666;2022-12-24T03:24:46;10.90;99.90
5554;DHT22;2800;49.528;8.666;2022-12-24T03:27:13;10.90;99.90
5554;DHT22;2800;49.528;8.666;2022-12-24T03:29:40;10.90;99.90
5554;DHT22;2800;49.528;8.666;2022-12-24T03:32:06;10.90;99.90
5554;DHT22;2800;49.528;8.666;2022-12-24T03:34:31;10.80;99.90
5554;DHT22;2800;49.528;8.666;2022-12-24T03:36:57;10.80;99.90
5554;DHT22;2800;49.528;8.666;2022-12-24T03:39:23;10.80;99.90
5554;DHT22;2800;49.528;8.666;2022-12-24T03:41:48;10.70;99.90
5554;DHT22;2800;49.528;8.666;2022-12-24T03:44:14;10.70;99.90
5554;DHT22;2800;49.528;8.666;2022-12-24T03:46:39;10.70;99.90
5554;DHT22;2800;49.528;8.666;2022-12-24T03:49:05;10.70;99.90
5554;DHT22;2800;49.528;8.666;2022-12-24T03:51:30;10.70;99.90
5554;DHT22;2800;49.528;8.666;2022-12-24T03:53:57;10.60;99.90
5554;DHT22;2800;49.528;8.666;2022-12-24T03:56:24;10.60;99.90
5554;DHT22;2800;49.528;8.666;2022-12-24T03:58:50;10.60;99.90
5554;DHT22;2800;49.528;8.666;2022-12-24T04:01:16;10.50;99.90
5554;DHT22;2800;49.528;8.666;2022-12-24T04:03:42;10.50;99.90
5554;DHT22;2800;49.528;8.666;2022-12-24T04:06:10;10.50;99.90
5554;DHT22;2800;49.528;8.666;2022-12-24T04:08:36;10.60;99.90
5554;DHT22;2800;49.528;8.666;2022-12-24T04:11:03;10.70;99.90
5554;DHT22;2800;49.528;8.666;2022-12-24T04:13:29;10.70;99.90
5554;DHT22;2800;49.528;8.666;2022-12-24T04:16:04;10.60;99.90
5554;DHT22;2800;49.528;8.666;2022-12-24T04:18:30;10.60;99.90
5554;DHT22;2800;49.528;8.666;2022-12-24T04:20:55;10.60;99.90
5554;DHT22;2800;49.528;8.666;2022-12-24T04:23:21;10.60;99.90
5554;DHT22;2800;49.528;8.666;2022-12-24T04:25:47;10.60;99.90
5554;DHT22;2800;49.528;8.666;2022-12-24T04:28:13;10.60;99.90
5554;DHT22;2800;49.528;8.666;2022-12-24T04:30:39;10.50;99.90
5554;DHT22;2800;49.528;8.666;2022-12-24T04:33:05;10.60;99.90
5554;DHT22;2800;49.528;8.666;2022-12-24T04:35:30;10.50;99.90
5554;DHT22;2800;49.528;8.666;2022-12-24T04:37:56;10.50;99.90
5554;DHT22;2800;49.528;8.666;2022-12-24T04:40:21;10.50;99.90
5554;DHT22;2800;49.528;8.666;2022-12-24T04:42:47;10.60;99.90
5554;DHT22;2800;49.528;8.666;2022-12-24T04:45:13;10.60;99.90
5554;DHT22;2800;49.528;8.666;2022-12-24T04:47:39;10.60;99.90
5554;DHT22;2800;49.528;8.666;2022-12-24T04:50:05;10.60;99.90
5554;DHT22;2800;49.528;8.666;2022-12-24T04:52:30;10.60;99.90
5554;DHT22;2800;49.528;8.666;2022-12-24T04:54:56;10.50;99.90
5554;DHT22;2800;49.528;8.666;2022-12-24T04:57:21;10.50;99.90
5554;DHT22;2800;49.528;8.666;2022-12-24T04:59:47;10.40;99.90
5554;DHT22;2800;49.528;8.666;2022-12-24T05:02:12;10.40;99.90
5554;DHT22;2800;49.528;8.666;2022-12-24T05:04:38;10.40;99.90
5554;DHT22;2800;49.528;8.666;2022-12-24T05:07:03;10.40;99.90
5554;DHT22;2800;49.528;8.666;2022-12-24T05:09:29;10.40;99.90
5554;DHT22;2800;49.528;8.666;2022-12-24T05:11:54;10.40;99.90
5554;DHT22;2800;49.528;8.666;2022-12-24T05:14:20;10.40;99.90
5554;DHT22;2800;49.528;8.666;2022-12-24T05:16:45;10.30;99.90
5554;DHT22;2800;49.528;8.666;2022-12-24T05:19:11;10.30;99.90
5554;DHT22;2800;49.528;8.666;2022-12-24T05:21:36;10.30;99.90
5554;DHT22;2800;49.528;8.666;2022-12-24T05:24:02;10.30;99.90
5554;DHT22;2800;49.528;8.666;2022-12-24T05:26:53;10.20;99.90
5554;DHT22;2800;49.528;8.666;2022-12-24T05:29:19;10.20;99.90
5554;DHT22;2800;49.528;8.666;2022-12-24T05:31:45;10.20;99.90
5554;DHT22;2800;49.528;8.666;2022-12-24T05:34:12;10.10;99.90
5554;DHT22;2800;49.528;8.666;2022-12-24T05:36:38;10.20;99.90
5554;DHT22;2800;49.528;8.666;2022-12-24T05:39:05;10.20;99.90
5554;DHT22;2800;49.528;8.666;2022-12-24T05:41:31;10.20;99.90
5554;DHT22;2800;49.528;8.666;2022-12-24T05:43:57;10.20;99.90
5554;DHT22;2800;49.528;8.666;2022-12-24T05:46:23;10.20;99.90
5554;DHT22;2800;49.528;8.666;2022-12-24T05:48:50;10.20;99.90
5554;DHT22;2800;49.528;8.666;2022-12-24T05:51:17;10.20;99.90
5554;DHT22;2800;49.528;8.666;2022-12-24T05:53:44;10.20;99.90
5554;DHT22;2800;49.528;8.666;2022-12-24T05:56:16;10.20;99.90
5554;DHT22;2800;49.528;8.666;2022-12-24T05:58:43;10.20;99.90
5554;DHT22;2800;49.528;8.666;2022-12-24T06:01:09;10.20;99.90
5554;DHT22;2800;49.528;8.666;2022-12-24T06:03:35;10.20;99.90
5554;DHT22;2800;49.528;8.666;2022-12-24T06:06:13;10.20;99.90
5554;DHT22;2800;49.528;8.666;2022-12-24T06:08:40;10.20;99.90
5554;DHT22;2800;49.528;8.666;2022-12-24T06:11:08;10.20;99.90
5554;DHT22;2800;49.528;8.666;2022-12-24T06:13:34;10.20;99.90
5554;DHT22;2800;49.528;8.666;2022-12-24T06:16:02;10.20;99.90
5554;DHT22;2800;49.528;8.666;2022-12-24T06:18:29;10.20;99.90
5554;DHT22;2800;49.528;8.666;2022-12-24T06:20:56;10.20;99.90
5554;DHT22;2800;49.528;8.666;2022-12-24T06:23:21;10.20;99.90
5554;DHT22;2800;49.528;8.666;2022-12-24T06:25:48;10.20;99.90
5554;DHT22;2800;49.528;8.666;2022-12-24T06:28:14;10.20;99.90
5554;DHT22;2800;49.528;8.666;2022-12-24T06:30:40;10.20;99.90
5554;DHT22;2800;49.528;8.666;2022-12-24T06:33:06;10.20;99.90
5554;DHT22;2800;49.528;8.666;2022-12-24T06:35:32;10.20;99.90
5554;DHT22;2800;49.528;8.666;2022-12-24T06:37:58;10.20;99.90
5554;DHT22;2800;49.528;8.666;2022-12-24T06:40:27;10.20;99.90
5554;DHT22;2800;49.528;8.666;2022-12-24T06:42:53;10.20;99.90
5554;DHT22;2800;49.528;8.666;2022-12-24T06:45:18;10.20;99.90
5554;DHT22;2800;49.528;8.666;2022-12-24T06:47:44;10.30;99.90
5554;DHT22;2800;49.528;8.666;2022-12-24T06:50:10;10.30;99.90
5554;DHT22;2800;49.528;8.666;2022-12-24T06:52:35;10.30;99.90
5554;DHT22;2800;49.528;8.666;2022-12-24T06:55:01;10.40;99.90
5554;DHT22;2800;49.528;8.666;2022-12-24T06:57:27;10.40;99.90
5554;DHT22;2800;49.528;8.666;2022-12-24T06:59:52;10.40;99.90
5554;DHT22;2800;49.528;8.666;2022-12-24T07:02:18;10.40;99.90
5554;DHT22;2800;49.528;8.666;2022-12-24T07:04:43;10.40;99.90
5554;DHT22;2800;49.528;8.666;2022-12-24T07:07:09;10.40;99.90
5554;DHT22;2800;49.528;8.666;2022-12-24T07:09:34;10.40;99.90
5554;DHT22;2800;49.528;8.666;2022-12-24T07:12:00;10.40;99.90
5554;DHT22;2800;49.528;8.666;2022-12-24T07:14:25;10.40;99.90
5554;DHT22;2800;49.528;8.666;2022-12-24T07:16:51;10.40;99.90
5554;DHT22;2800;49.528;8.666;2022-12-24T07:19:17;10.40;99.90
5554;DHT22;2800;49.528;8.666;2022-12-24T07:21:43;10.40;99.90
5554;DHT22;2800;49.528;8.666;2022-12-24T07:24:08;10.40;99.90
5554;DHT22;2800;49.528;8.666;2022-12-24T07:26:34;10.30;99.90
5554;DHT22;2800;49.528;8.666;2022-12-24T07:28:59;10.30;99.90
5554;DHT22;2800;49.528;8.666;2022-12-24T07:31:25;10.30;99.90
5554;DHT22;2800;49.528;8.666;2022-12-24T07:33:50;10.30;99.90
5554;DHT22;2800;49.528;8.666;2022-12-24T07:36:20;10.40;99.90
5554;DHT22;2800;49.528;8.666;2022-12-24T07:38:46;10.30;99.90
5554;DHT22;2800;49.528;8.666;2022-12-24T07:41:12;10.30;99.90
5554;DHT22;2800;49.528;8.666;2022-12-24T07:43:38;10.30;99.90
5554;DHT22;2800;49.528;8.666;2022-12-24T07:46:04;10.30;99.90
5554;DHT22;2800;49.528;8.666;2022-12-24T07:48:31;10.30;99.90
5554;DHT22;2800;49.528;8.666;2022-12-24T07:50:57;10.40;99.90
5554;DHT22;2800;49.528;8.666;2022-12-24T07:53:24;10.40;99.90
5554;DHT22;2800;49.528;8.666;2022-12-24T07:55:50;10.40;99.90
5554;DHT22;2800;49.528;8.666;2022-12-24T07:58:15;10.40;99.90
5554;DHT22;2800;49.528;8.666;2022-12-24T08:00:41;10.50;99.90
5554;DHT22;2800;49.528;8.666;2022-12-24T08:03:16;10.50;99.90
5554;DHT22;2800;49.528;8.666;2022-12-24T08:05:42;10.50;99.90
5554;DHT22;2800;49.528;8.666;2022-12-24T08:08:07;10.50;99.90
5554;DHT22;2800;49.528;8.666;2022-12-24T08:10:33;10.50;99.90
5554;DHT22;2800;49.528;8.666;2022-12-24T08:12:58;10.50;99.90
5554;DHT22;2800;49.528;8.666;2022-12-24T08:15:24;10.60;99.90
5554;DHT22;2800;49.528;8.666;2022-12-24T08:17:49;10.50;99.90
5554;DHT22;2800;49.528;8.666;2022-12-24T08:20:15;10.50;99.90
5554;DHT22;2800;49.528;8.666;2022-12-24T08:22:41;10.40;99.90
5554;DHT22;2800;49.528;8.666;2022-12-24T08:25:08;10.50;99.90
5554;DHT22;2800;49.528;8.666;2022-12-24T08:27:34;10.50;99.90
5554;DHT22;2800;49.528;8.666;2022-12-24T08:30:00;10.50;99.90
5554;DHT22;2800;49.528;8.666;2022-12-24T08:32:26;10.40;99.90
5554;DHT22;2800;49.528;8.666;2022-12-24T08:34:51;10.40;99.90
5554;DHT22;2800;49.528;8.666;2022-12-24T08:37:17;10.40;99.90
5554;DHT22;2800;49.528;8.666;2022-12-24T08:39:42;10.40;99.90
5554;DHT22;2800;49.528;8.666;2022-12-24T08:42:08;10.40;99.90
5554;DHT22;2800;49.528;8.666;2022-12-24T08:44:33;10.50;99.90
5554;DHT22;2800;49.528;8.666;2022-12-24T08:46:59;10.50;99.90
5554;DHT22;2800;49.528;8.666;2022-12-24T08:49:24;10.50;99.90
5554;DHT22;2800;49.528;8.666;2022-12-24T08:51:50;10.60;99.90
5554;DHT22;2800;49.528;8.666;2022-12-24T08:54:16;10.70;99.90
5554;DHT22;2800;49.528;8.666;2022-12-24T08:56:41;10.70;99.90
5554;DHT22;2800;49.528;8.666;2022-12-24T08:59:07;10.70;99.90
5554;DHT22;2800;49.528;8.666;2022-12-24T09:01:32;10.80;99.90
5554;DHT22;2800;49.528;8.666;2022-12-24T09:04:00;10.80;99.90
5554;DHT22;2800;49.528;8.666;2022-12-24T09:06:26;10.80;99.90
5554;DHT22;2800;49.528;8.666;2022-12-24T09:08:51;10.90;99.90
5554;DHT22;2800;49.528;8.666;2022-12-24T09:11:18;11.00;99.90
5554;DHT22;2800;49.528;8.666;2022-12-24T09:13:44;11.20;99.90
5554;DHT22;2800;49.528;8.666;2022-12-24T09:16:10;11.40;99.90
5554;DHT22;2800;49.528;8.666;2022-12-24T09:18:37;11.70;99.90
5554;DHT22;2800;49.528;8.666;2022-12-24T09:21:06;11.80;99.90
5554;DHT22;2800;49.528;8.666;2022-12-24T09:23:34;12.00;99.90
5554;DHT22;2800;49.528;8.666;2022-12-24T09:26:05;12.00;99.90
5554;DHT22;2800;49.528;8.666;2022-12-24T09:28:30;12.00;99.90
5554;DHT22;2800;49.528;8.666;2022-12-24T09:31:00;11.80;99.90
5554;DHT22;2800;49.528;8.666;2022-12-24T09:33:31;11.80;99.90
5554;DHT22;2800;49.528;8.666;2022-12-24T09:35:57;11.60;99.90
5554;DHT22;2800;49.528;8.666;2022-12-24T09:38:23;11.50;99.90
5554;DHT22;2800;49.528;8.666;2022-12-24T09:40:49;11.40;99.90
5554;DHT22;2800;49.528;8.666;2022-12-24T09:43:22;11.30;99.90
5554;DHT22;2800;49.528;8.666;2022-12-24T09:48:44;11.50;99.90
5554;DHT22;2800;49.528;8.666;2022-12-24T09:53:54;11.90;99.90
5554;DHT22;2800;49.528;8.666;2022-12-24T09:56:26;11.70;99.90
5554;DHT22;2800;49.528;8.666;2022-12-24T09:58:59;11.60;99.90
5554;DHT22;2800;49.528;8.666;2022-12-24T10:01:27;11.60;99.90
5554;DHT22;2800;49.528;8.666;2022-12-24T10:03:53;11.70;99.90
5554;DHT22;2800;49.528;8.666;2022-12-24T10:06:23;11.70;99.90
5554;DHT22;2800;49.528;8.666;2022-12-24T10:22:49;11.60;99.90
5554;DHT22;2800;49.528;8.666;2022-12-24T10:25:27;11.80;99.90
5554;DHT22;2800;49.528;8.666;2022-12-24T10:27:54;12.00;99.90
5554;DHT22;2800;49.528;8.666;2022-12-24T10:30:22;12.00;99.90
5554;DHT22;2800;49.528;8.666;2022-12-24T10:32:52;11.90;99.90
5554;DHT22;2800;49.528;8.666;2022-12-24T10:35:22;11.80;99.90
5554;DHT22;2800;49.528;8.666;2022-12-24T10:37:50;11.80;99.90
5554;DHT22;2800;49.528;8.666;2022-12-24T10:40:43;11.70;99.90
5554;DHT22;2800;49.528;8.666;2022-12-24T10:43:19;11.80;99.90
5554;DHT22;2800;49.528;8.666;2022-12-24T10:48:47;11.70;99.90
5554;DHT22;2800;49.528;8.666;2022-12-24T10:53:55;11.60;99.90
5554;DHT22;2800;49.528;8.666;2022-12-24T10:56:22;11.60;99.90
5554;DHT22;2800;49.528;8.666;2022-12-24T10:58:52;11.60;99.90
5554;DHT22;2800;49.528;8.666;2022-12-24T11:01:20;11.70;99.90
5554;DHT22;2800;49.528;8.666;2022-12-24T11:03:52;11.80;99.90
5554;DHT22;2800;49.528;8.666;2022-12-24T11:06:23;11.80;99.90
5554;DHT22;2800;49.528;8.666;2022-12-24T11:08:49;11.90;99.90
5554;DHT22;2800;49.528;8.666;2022-12-24T11:11:16;12.00;99.90
5554;DHT22;2800;49.528;8.666;2022-12-24T11:16:32;12.20;99.90
5554;DHT22;2800;49.528;8.666;2022-12-24T11:19:04;12.50;99.90
5554;DHT22;2800;49.528;8.666;2022-12-24T11:21:32;12.30;99.90
5554;DHT22;2800;49.528;8.666;2022-12-24T11:24:04;12.20;99.90
5554;DHT22;2800;49.528;8.666;2022-12-24T11:26:31;12.10;99.90
5554;DHT22;2800;49.528;8.666;2022-12-24T11:31:48;12.10;99.90
5554;DHT22;2800;49.528;8.666;2022-12-24T11:36:42;12.00;99.90
5554;DHT22;2800;49.528;8.666;2022-12-24T11:39:20;11.90;99.90
5554;DHT22;2800;49.528;8.666;2022-12-24T11:41:47;11.90;99.90
5554;DHT22;2800;49.528;8.666;2022-12-24T11:44:26;11.90;99.90
5554;DHT22;2800;49.528;8.666;2022-12-24T11:46:53;11.90;99.90
5554;DHT22;2800;49.528;8.666;2022-12-24T11:49:30;11.90;99.90
5554;DHT22;2800;49.528;8.666;2022-12-24T11:55:02;11.80;99.90
5554;DHT22;2800;49.528;8.666;2022-12-24T11:57:31;11.80;99.90
5554;DHT22;2800;49.528;8.666;2022-12-24T11:59:58;11.80;99.90
5554;DHT22;2800;49.528;8.666;2022-12-24T12:02:33;11.80;99.90
5554;DHT22;2800;49.528;8.666;2022-12-24T12:05:25;11.80;99.90
5554;DHT22;2800;49.528;8.666;2022-12-24T12:07:57;11.80;99.90
5554;DHT22;2800;49.528;8.666;2022-12-24T12:10:30;11.80;99.90
5554;DHT22;2800;49.528;8.666;2022-12-24T12:13:03;11.80;99.90
5554;DHT22;2800;49.528;8.666;2022-12-24T12:18:33;11.90;99.90
5554;DHT22;2800;49.528;8.666;2022-12-24T12:21:21;11.90;99.90
5554;DHT22;2800;49.528;8.666;2022-12-24T12:23:49;12.00;99.90
5554;DHT22;2800;49.528;8.666;2022-12-24T12:26:23;12.00;99.90
5554;DHT22;2800;49.528;8.666;2022-12-24T12:28:59;12.00;99.90
5554;DHT22;2800;49.528;8.666;2022-12-24T12:31:41;12.00;99.90
5554;DHT22;2800;49.528;8.666;2022-12-24T12:34:39;11.90;99.90
5554;DHT22;2800;49.528;8.666;2022-12-24T12:37:17;11.90;99.90
5554;DHT22;2800;49.528;8.666;2022-12-24T12:39:45;11.90;99.90
5554;DHT22;2800;49.528;8.666;2022-12-24T12:42:27;11.90;99.90
5554;DHT22;2800;49.528;8.666;2022-12-24T12:50:51;12.00;99.90
5554;DHT22;2800;49.528;8.666;2022-12-24T12:53:19;12.00;99.90
5554;DHT22;2800;49.528;8.666;2022-12-24T12:56:13;12.00;99.90
5554;DHT22;2800;49.528;8.666;2022-12-24T12:58:56;12.10;99.90
5554;DHT22;2800;49.528;8.666;2022-12-24T13:10:34;12.00;99.90
5554;DHT22;2800;49.528;8.666;2022-12-24T13:13:30;12.00;99.90
5554;DHT22;2800;49.528;8.666;2022-12-24T13:21:26;12.00;99.90
5554;DHT22;2800;49.528;8.666;2022-12-24T13:24:17;12.00;99.90
5554;DHT22;2800;49.528;8.666;2022-12-24T13:27:02;11.90;99.90
5554;DHT22;2800;49.528;8.666;2022-12-24T13:37:34;11.80;99.90
5554;DHT22;2800;49.528;8.666;2022-12-24T13:47:53;11.60;99.90
5554;DHT22;2800;49.528;8.666;2022-12-24T13:50:35;11.60;99.90
5554;DHT22;2800;49.528;8.666;2022-12-24T13:53:02;11.60;99.90
5554;DHT22;2800;49.528;8.666;2022-12-24T13:55:28;11.50;99.90
5554;DHT22;2800;49.528;8.666;2022-12-24T13:58:01;11.50;99.90
5554;DHT22;2800;49.528;8.666;2022-12-24T14:00:37;11.50;99.90
5554;DHT22;2800;49.528;8.666;2022-12-24T14:08:10;11.40;99.90
5554;DHT22;2800;49.528;8.666;2022-12-24T14:10:43;11.40;99.90
5554;DHT22;2800;49.528;8.666;2022-12-24T14:13:49;11.40;99.90
5554;DHT22;2800;49.528;8.666;2022-12-24T14:19:02;11.20;99.90
5554;DHT22;2800;49.528;8.666;2022-12-24T14:21:36;11.20;99.90
5554;DHT22;2800;49.528;8.666;2022-12-24T14:24:14;11.10;99.90
5554;DHT22;2800;49.528;8.666;2022-12-24T14:26:47;11.10;99.90
5554;DHT22;2800;49.528;8.666;2022-12-24T14:29:25;11.10;99.90
5554;DHT22;2800;49.528;8.666;2022-12-24T14:31:56;11.10;99.90
5554;DHT22;2800;49.528;8.666;2022-12-24T14:34:23;11.10;99.90
5554;DHT22;2800;49.528;8.666;2022-12-24T14:36:51;11.10;99.90
5554;DHT22;2800;49.528;8.666;2022-12-24T14:39:28;11.00;99.90
5554;DHT22;2800;49.528;8.666;2022-12-24T14:47:14;10.90;99.90
5554;DHT22;2800;49.528;8.666;2022-12-24T14:52:26;10.80;99.90
5554;DHT22;2800;49.528;8.666;2022-12-24T14:54:57;10.80;99.90
5554;DHT22;2800;49.528;8.666;2022-12-24T14:57:24;10.80;99.90
5554;DHT22;2800;49.528;8.666;2022-12-24T14:59:53;10.80;99.90
5554;DHT22;2800;49.528;8.666;2022-12-24T15:05:24;10.80;99.90
5554;DHT22;2800;49.528;8.666;2022-12-24T15:07:56;10.80;99.90
5554;DHT22;2800;49.528;8.666;2022-12-24T15:10:29;10.80;99.90
5554;DHT22;2800;49.528;8.666;2022-12-24T15:12:56;10.80;99.90
5554;DHT22;2800;49.528;8.666;2022-12-24T15:15:23;10.70;99.90
5554;DHT22;2800;49.528;8.666;2022-12-24T15:17:49;10.70;99.90
5554;DHT22;2800;49.528;8.666;2022-12-24T15:20:20;10.70;99.90
5554;DHT22;2800;49.528;8.666;2022-12-24T15:22:51;10.70;99.90
5554;DHT22;2800;49.528;8.666;2022-12-24T15:25:20;10.70;99.90
5554;DHT22;2800;49.528;8.666;2022-12-24T15:27:46;10.60;99.90
5554;DHT22;2800;49.528;8.666;2022-12-24T15:30:20;10.60;99.90
5554;DHT22;2800;49.528;8.666;2022-12-24T15:32:48;10.60;99.90
5554;DHT22;2800;49.528;8.666;2022-12-24T15:35:34;10.60;99.90
5554;DHT22;2800;49.528;8.666;2022-12-24T15:38:04;10.50;99.90
5554;DHT22;2800;49.528;8.666;2022-12-24T15:40:31;10.50;99.90
5554;DHT22;2800;49.528;8.666;2022-12-24T15:42:59;10.50;99.90
5554;DHT22;2800;49.528;8.666;2022-12-24T15:45:28;10.50;99.90
5554;DHT22;2800;49.528;8.666;2022-12-24T15:48:06;10.50;99.90
5554;DHT22;2800;49.528;8.666;2022-12-24T15:50:44;10.50;99.90
5554;DHT22;2800;49.528;8.666;2022-12-24T15:53:13;10.50;99.90
5554;DHT22;2800;49.528;8.666;2022-12-24T15:55:43;10.50;99.90
5554;DHT22;2800;49.528;8.666;2022-12-24T15:59:09;10.50;99.90
5554;DHT22;2800;49.528;8.666;2022-12-24T16:01:27;10.50;99.90
5554;DHT22;2800;49.528;8.666;2022-12-24T16:03:55;10.50;99.90
5554;DHT22;2800;49.528;8.666;2022-12-24T16:06:22;10.50;99.90
5554;DHT22;2800;49.528;8.666;2022-12-24T16:08:48;10.60;99.90
5554;DHT22;2800;49.528;8.666;2022-12-24T16:11:34;10.60;99.90
5554;DHT22;2800;49.528;8.666;2022-12-24T16:14:12;10.60;99.90
5554;DHT22;2800;49.528;8.666;2022-12-24T16:16:45;10.50;99.90
5554;DHT22;2800;49.528;8.666;2022-12-24T16:19:21;10.70;99.90
5554;DHT22;2800;49.528;8.666;2022-12-24T16:21:52;10.70;99.90
5554;DHT22;2800;49.528;8.666;2022-12-24T16:24:22;10.70;99.90
5554;DHT22;2800;49.528;8.666;2022-12-24T16:26:48;10.70;99.90
5554;DHT22;2800;49.528;8.666;2022-12-24T16:29:15;10.70;99.90
5554;DHT22;2800;49.528;8.666;2022-12-24T16:31:45;10.70;99.90
5554;DHT22;2800;49.528;8.666;2022-12-24T16:34:12;10.70;99.90
5554;DHT22;2800;49.528;8.666;2022-12-24T16:36:40;10.70;99.90
5554;DHT22;2800;49.528;8.666;2022-12-24T16:39:11;10.70;99.90
5554;DHT22;2800;49.528;8.666;2022-12-24T16:44:33;10.70;99.90
5554;DHT22;2800;49.528;8.666;2022-12-24T16:46:59;10.70;99.90
5554;DHT22;2800;49.528;8.666;2022-12-24T16:49:26;10.70;99.90
5554;DHT22;2800;49.528;8.666;2022-12-24T16:51:52;10.70;99.90
5554;DHT22;2800;49.528;8.666;2022-12-24T16:54:17;10.60;99.90
5554;DHT22;2800;49.528;8.666;2022-12-24T16:56:43;10.60;99.90
5554;DHT22;2800;49.528;8.666;2022-12-24T16:59:15;10.60;99.90
5554;DHT22;2800;49.528;8.666;2022-12-24T17:01:41;10.60;99.90
5554;DHT22;2800;49.528;8.666;2022-12-24T17:04:07;10.60;99.90
5554;DHT22;2800;49.528;8.666;2022-12-24T17:06:33;10.60;99.90
5554;DHT22;2800;49.528;8.666;2022-12-24T17:08:58;10.50;99.90
5554;DHT22;2800;49.528;8.666;2022-12-24T17:11:24;10.60;99.90
5554;DHT22;2800;49.528;8.666;2022-12-24T17:13:49;10.50;99.90
5554;DHT22;2800;49.528;8.666;2022-12-24T17:16:15;10.50;99.90
5554;DHT22;2800;49.528;8.666;2022-12-24T17:18:40;10.50;99.90
5554;DHT22;2800;49.528;8.666;2022-12-24T17:21:06;10.50;99.90
5554;DHT22;2800;49.528;8.666;2022-12-24T17:23:31;10.50;99.90
5554;DHT22;2800;49.528;8.666;2022-12-24T17:25:57;10.50;99.90
5554;DHT22;2800;49.528;8.666;2022-12-24T17:28:23;10.60;99.90
5554;DHT22;2800;49.528;8.666;2022-12-24T17:30:48;10.50;99.90
5554;DHT22;2800;49.528;8.666;2022-12-24T17:33:14;10.60;99.90
5554;DHT22;2800;49.528;8.666;2022-12-24T17:35:41;10.60;99.90
5554;DHT22;2800;49.528;8.666;2022-12-24T17:38:07;10.70;99.90
5554;DHT22;2800;49.528;8.666;2022-12-24T17:40:32;10.70;99.90
5554;DHT22;2800;49.528;8.666;2022-12-24T17:42:58;10.70;99.90
5554;DHT22;2800;49.528;8.666;2022-12-24T17:45:23;10.70;99.90
5554;DHT22;2800;49.528;8.666;2022-12-24T17:47:49;10.70;99.90
5554;DHT22;2800;49.528;8.666;2022-12-24T17:50:15;10.70;99.90
5554;DHT22;2800;49.528;8.666;2022-12-24T17:52:40;10.70;99.90
5554;DHT22;2800;49.528;8.666;2022-12-24T17:55:06;10.70;99.90
5554;DHT22;2800;49.528;8.666;2022-12-24T17:57:33;10.70;99.90
5554;DHT22;2800;49.528;8.666;2022-12-24T17:59:58;10.70;99.90
5554;DHT22;2800;49.528;8.666;2022-12-24T18:02:24;10.70;99.90
5554;DHT22;2800;49.528;8.666;2022-12-24T18:04:49;10.70;99.90
5554;DHT22;2800;49.528;8.666;2022-12-24T18:07:15;10.70;99.90
5554;DHT22;2800;49.528;8.666;2022-12-24T18:09:43;10.70;99.90